createdAt,value
2018-09-22T00:00:38.576Z,6.63
2018-09-22T00:03:08.224Z,6.40
2018-09-22T00:05:37.752Z,6.40
2018-09-22T00:08:07.361Z,5.40
2018-09-22T00:10:39.789Z,6.20
2018-09-22T00:13:13.866Z,6.30
2018-09-22T00:15:46.590Z,6.60
2018-09-22T00:18:16.313Z,6.40
2018-09-22T00:20:46.069Z,6.50
2018-09-22T00:23:15.645Z,7.53
2018-09-22T00:25:46.180Z,6.87
2018-09-22T00:28:15.976Z,6.60
2018-09-22T00:30:45.528Z,6.10
2018-09-22T00:33:15.393Z,7.10
2018-09-22T00:35:45.043Z,7.83
2018-09-22T00:38:14.636Z,6.30
2018-09-22T00:40:44.364Z,5.93
2018-09-22T00:43:14.077Z,6.50
2018-09-22T00:45:43.946Z,5.53
2018-09-22T00:48:14.092Z,4.43
2018-09-22T00:50:43.840Z,3.30
2018-09-22T00:53:13.503Z,3.03
2018-09-22T00:55:43.197Z,4.63
2018-09-22T00:58:12.820Z,3.17
2018-09-22T01:00:42.614Z,2.60
2018-09-22T01:03:12.270Z,2.83
2018-09-22T01:05:42.041Z,2.13
2018-09-22T01:08:11.892Z,1.57
2018-09-22T01:10:41.761Z,1.53
2018-09-22T01:13:11.525Z,1.60
2018-09-22T01:15:41.543Z,2.23
2018-09-22T01:18:11.242Z,1.20
2018-09-22T01:20:41.009Z,1.43
2018-09-22T01:23:10.659Z,1.60
2018-09-22T01:25:40.283Z,1.10
2018-09-22T01:28:10.033Z,1.00
2018-09-22T01:30:39.684Z,1.47
2018-09-22T01:33:09.557Z,0.93
2018-09-22T01:35:39.306Z,1.20
2018-09-22T01:38:09.000Z,1.10
2018-09-22T01:40:38.936Z,1.27
2018-09-22T01:43:08.588Z,0.90
2018-09-22T01:45:38.485Z,1.30
2018-09-22T01:48:08.264Z,1.30
2018-09-22T01:50:38.036Z,1.30
2018-09-22T01:53:07.869Z,1.13
2018-09-22T01:55:37.572Z,1.07
2018-09-22T01:58:07.329Z,1.10
2018-09-22T02:00:36.872Z,1.40
2018-09-22T02:03:06.636Z,1.27
2018-09-22T02:05:36.291Z,1.07
2018-09-22T02:08:06.048Z,1.27
2018-09-22T02:10:35.667Z,1.73
2018-09-22T02:13:05.576Z,1.50
2018-09-22T02:15:35.169Z,1.10
2018-09-22T02:18:04.792Z,1.13
2018-09-22T02:20:34.552Z,1.33
2018-09-22T02:23:04.196Z,1.50
2018-09-22T02:25:33.769Z,1.13
2018-09-22T02:28:03.526Z,1.20
2018-09-22T02:30:33.265Z,1.07
2018-09-22T02:33:03.003Z,1.30
2018-09-22T02:35:32.616Z,1.20
2018-09-22T02:38:02.315Z,1.20
2018-09-22T02:40:31.964Z,1.40
2018-09-22T02:43:01.662Z,1.30
2018-09-22T02:45:31.356Z,1.30
2018-09-22T02:48:00.972Z,1.20
2018-09-22T02:50:30.588Z,1.30
2018-09-22T02:53:00.213Z,1.43
2018-09-22T02:55:29.893Z,1.60
2018-09-22T02:57:59.590Z,1.93
2018-09-22T03:00:29.211Z,1.40
2018-09-22T03:02:58.912Z,1.63
2018-09-22T03:05:28.555Z,1.47
2018-09-22T03:07:58.140Z,1.30
2018-09-22T03:10:27.937Z,1.40
2018-09-22T03:12:57.553Z,1.23
2018-09-22T03:15:27.490Z,1.03
2018-09-22T03:17:57.012Z,1.10
2018-09-22T03:20:26.772Z,1.33
2018-09-22T03:22:56.463Z,1.00
2018-09-22T03:25:26.094Z,1.27
2018-09-22T03:27:55.810Z,0.97
2018-09-22T03:30:25.568Z,0.80
2018-09-22T03:32:55.365Z,1.20
2018-09-22T03:35:24.969Z,1.57
2018-09-22T03:37:54.637Z,1.40
2018-09-22T03:40:24.288Z,1.10
2018-09-22T03:42:53.968Z,1.20
2018-09-22T03:45:23.764Z,0.83
2018-09-22T03:47:53.647Z,1.30
2018-09-22T03:50:23.439Z,1.20
2018-09-22T03:52:53.051Z,1.33
2018-09-22T03:55:22.832Z,1.50
2018-09-22T03:57:52.464Z,1.97
2018-09-22T04:00:22.168Z,1.60
2018-09-22T04:02:51.875Z,1.70
2018-09-22T04:05:21.505Z,1.70
2018-09-22T04:07:51.278Z,1.60
2018-09-22T04:10:21.013Z,1.50
2018-09-22T04:12:50.729Z,1.40
2018-09-22T04:15:20.491Z,1.30
2018-09-22T04:17:50.248Z,1.90
2018-09-22T04:20:20.019Z,1.30
2018-09-22T04:22:49.660Z,1.50
2018-09-22T04:25:19.241Z,1.20
2018-09-22T04:27:48.960Z,1.90
2018-09-22T04:30:18.560Z,2.50
2018-09-22T04:32:48.257Z,1.83
2018-09-22T04:35:17.904Z,1.43
2018-09-22T04:37:47.499Z,1.47
2018-09-22T04:40:17.186Z,1.60
2018-09-22T04:42:46.813Z,1.47
2018-09-22T04:45:16.491Z,1.20
2018-09-22T04:47:46.261Z,2.20
2018-09-22T04:50:16.033Z,1.60
2018-09-22T04:52:45.767Z,1.57
2018-09-22T04:55:15.453Z,1.80
2018-09-22T04:57:45.303Z,1.87
2018-09-22T05:00:15.149Z,1.80
2018-09-22T05:02:44.912Z,1.70
2018-09-22T05:05:14.519Z,1.90
2018-09-22T05:07:44.191Z,2.10
2018-09-22T05:10:13.850Z,1.37
2018-09-22T05:12:43.589Z,1.47
2018-09-22T05:15:13.320Z,1.73
2018-09-22T05:17:42.971Z,1.73
2018-09-22T05:20:12.600Z,1.80
2018-09-22T05:22:42.348Z,2.27
2018-09-22T05:25:11.985Z,1.70
2018-09-22T05:27:41.667Z,2.70
2018-09-22T05:30:11.323Z,1.70
2018-09-22T05:32:41.013Z,2.17
2018-09-22T05:35:10.696Z,2.10
2018-09-22T05:37:40.425Z,2.07
2018-09-22T05:40:10.212Z,2.10
2018-09-22T05:42:43.039Z,2.20
2018-09-22T05:45:12.712Z,1.70
2018-09-22T05:47:42.452Z,1.83
2018-09-22T05:50:12.039Z,2.00
2018-09-22T05:52:41.733Z,2.40
2018-09-22T05:55:11.388Z,1.70
2018-09-22T05:57:41.153Z,2.53
2018-09-22T06:00:10.804Z,2.37
2018-09-22T06:02:40.384Z,1.80
2018-09-22T06:05:10.177Z,2.27
2018-09-22T06:07:39.900Z,2.07
2018-09-22T06:10:09.749Z,2.03
2018-09-22T06:12:39.477Z,2.80
2018-09-22T06:15:09.675Z,2.50
2018-09-22T06:17:39.402Z,3.33
2018-09-22T06:20:09.372Z,2.60
2018-09-22T06:22:38.910Z,2.13
2018-09-22T06:25:08.503Z,2.77
2018-09-22T06:27:38.077Z,2.40
2018-09-22T06:30:07.732Z,2.23
2018-09-22T06:32:37.396Z,2.40
2018-09-22T06:35:07.160Z,2.10
2018-09-22T06:37:36.912Z,2.27
2018-09-22T06:40:06.620Z,2.47
2018-09-22T06:42:36.160Z,1.80
2018-09-22T06:45:05.953Z,2.00
2018-09-22T06:47:35.777Z,2.07
2018-09-22T06:50:05.573Z,2.00
2018-09-22T06:52:35.342Z,2.03
2018-09-22T06:55:05.361Z,2.13
2018-09-22T06:57:35.020Z,1.80
2018-09-22T07:00:04.903Z,2.40
2018-09-22T07:02:34.588Z,2.40
2018-09-22T07:05:04.451Z,1.90
2018-09-22T07:07:34.196Z,1.90
2018-09-22T07:10:03.880Z,2.47
2018-09-22T07:12:33.594Z,1.87
2018-09-22T07:15:03.342Z,2.10
2018-09-22T07:17:33.103Z,2.27
2018-09-22T07:20:02.850Z,2.47
2018-09-22T07:22:37.577Z,1.97
2018-09-22T07:25:07.957Z,2.60
2018-09-22T07:27:38.072Z,2.13
2018-09-22T07:30:08.860Z,3.00
2018-09-22T07:32:40.044Z,2.10
2018-09-22T07:35:11.585Z,2.10
2018-09-22T07:37:41.333Z,2.00
2018-09-22T07:40:11.086Z,2.30
2018-09-22T07:42:40.843Z,1.80
2018-09-22T07:45:10.601Z,2.17
2018-09-22T07:47:40.370Z,2.53
2018-09-22T07:50:10.120Z,2.67
2018-09-22T07:52:39.803Z,2.10
2018-09-22T07:55:09.545Z,2.40
2018-09-22T07:57:39.337Z,2.33
2018-09-22T08:00:09.129Z,2.73
2018-09-22T08:02:38.679Z,2.50
2018-09-22T08:05:08.612Z,2.57
2018-09-22T08:07:38.202Z,2.50
2018-09-22T08:10:07.977Z,3.03
2018-09-22T08:12:37.722Z,2.40
2018-09-22T08:15:07.724Z,2.80
2018-09-22T08:17:37.450Z,2.37
2018-09-22T08:20:07.447Z,2.00
2018-09-22T08:22:37.239Z,2.30
2018-09-22T08:25:07.028Z,2.40
2018-09-22T08:27:36.644Z,2.37
2018-09-22T08:30:07.645Z,2.50
2018-09-22T08:32:37.456Z,2.70
2018-09-22T08:35:07.148Z,3.00
2018-09-22T08:37:36.746Z,2.50
2018-09-22T08:40:06.851Z,1.93
2018-09-22T08:42:36.565Z,2.17
2018-09-22T08:45:09.566Z,2.00
2018-09-22T08:47:39.356Z,2.17
2018-09-22T08:50:09.295Z,2.00
2018-09-22T08:52:39.009Z,2.33
2018-09-22T08:55:08.781Z,2.00
2018-09-22T08:57:38.557Z,2.10
2018-09-22T09:00:08.612Z,1.87
2018-09-22T09:02:39.636Z,2.43
2018-09-22T09:05:09.526Z,2.40
2018-09-22T09:07:39.242Z,2.20
2018-09-22T09:10:08.913Z,2.43
2018-09-22T09:12:38.497Z,1.97
2018-09-22T09:15:12.451Z,1.60
2018-09-22T09:17:42.152Z,1.70
2018-09-22T09:20:11.921Z,2.33
2018-09-22T09:22:41.592Z,1.67
2018-09-22T09:25:11.373Z,1.60
2018-09-22T09:27:40.993Z,1.93
2018-09-22T09:30:10.600Z,2.20
2018-09-22T09:32:40.378Z,2.10
2018-09-22T09:35:10.228Z,1.57
2018-09-22T09:37:40.098Z,1.50
2018-09-22T09:40:09.733Z,1.70
2018-09-22T09:42:39.265Z,1.77
2018-09-22T09:45:09.121Z,1.50
2018-09-22T09:47:38.752Z,1.73
2018-09-22T09:50:08.285Z,1.50
2018-09-22T09:52:37.986Z,1.67
2018-09-22T09:55:10.297Z,1.87
2018-09-22T09:57:43.298Z,1.80
2018-09-22T10:00:13.116Z,1.93
2018-09-22T10:02:42.659Z,1.43
2018-09-22T10:05:12.508Z,1.87
2018-09-22T10:07:42.493Z,1.40
2018-09-22T10:10:12.369Z,1.43
2018-09-22T10:12:42.003Z,1.53
2018-09-22T10:15:11.704Z,1.83
2018-09-22T10:17:41.389Z,1.50
2018-09-22T10:20:11.154Z,1.57
2018-09-22T10:22:40.865Z,1.70
2018-09-22T10:25:10.454Z,1.60
2018-09-22T10:27:40.073Z,1.77
2018-09-22T10:30:09.996Z,1.53
2018-09-22T10:32:39.783Z,1.57
2018-09-22T10:35:09.504Z,1.80
2018-09-22T10:37:39.277Z,1.67
2018-09-22T10:40:09.028Z,1.57
2018-09-22T10:42:38.693Z,1.60
2018-09-22T10:45:08.672Z,1.70
2018-09-22T10:47:38.405Z,1.40
2018-09-22T10:50:08.176Z,1.70
2018-09-22T10:52:38.167Z,1.77
2018-09-22T10:55:08.114Z,1.70
2018-09-22T10:57:37.765Z,1.20
2018-09-22T11:00:07.645Z,1.00
2018-09-22T11:02:37.326Z,1.43
2018-09-22T11:05:07.313Z,1.57
2018-09-22T11:07:37.079Z,1.50
2018-09-22T11:10:06.845Z,1.63
2018-09-22T11:12:41.023Z,1.43
2018-09-22T11:15:13.429Z,1.23
2018-09-22T11:17:43.052Z,1.83
2018-09-22T11:20:12.782Z,1.60
2018-09-22T11:22:42.367Z,1.20
2018-09-22T11:25:12.092Z,1.40
2018-09-22T11:27:41.710Z,2.13
2018-09-22T11:30:11.492Z,1.40
2018-09-22T11:32:41.046Z,1.87
2018-09-22T11:35:10.630Z,1.37
2018-09-22T11:37:40.428Z,1.37
2018-09-22T11:40:10.175Z,1.20
2018-09-22T11:42:39.868Z,1.73
2018-09-22T11:45:09.555Z,1.43
2018-09-22T11:47:39.268Z,1.27
2018-09-22T11:50:08.969Z,1.50
2018-09-22T11:52:38.460Z,1.40
2018-09-22T11:55:08.221Z,1.40
2018-09-22T11:57:37.894Z,1.10
2018-09-22T12:00:07.752Z,1.60
2018-09-22T12:02:37.248Z,1.57
2018-09-22T12:05:07.033Z,1.40
2018-09-22T12:07:36.662Z,1.40
2018-09-22T12:10:06.480Z,1.17
2018-09-22T12:12:36.240Z,1.40
2018-09-22T12:15:06.211Z,1.10
2018-09-22T12:17:36.000Z,1.20
2018-09-22T12:20:05.712Z,1.47
2018-09-22T12:22:35.262Z,1.00
2018-09-22T12:25:04.943Z,1.20
2018-09-22T12:27:34.758Z,1.30
2018-09-22T12:30:04.436Z,1.27
2018-09-22T12:32:34.165Z,1.33
2018-09-22T12:35:03.968Z,1.40
2018-09-22T12:37:33.536Z,1.30
2018-09-22T12:40:03.288Z,1.83
2018-09-22T12:42:33.073Z,1.03
2018-09-22T12:45:02.734Z,1.50
2018-09-22T12:47:32.388Z,1.20
2018-09-22T12:50:01.888Z,1.33
2018-09-22T12:52:31.432Z,1.13
2018-09-22T12:55:01.119Z,1.20
2018-09-22T12:57:30.803Z,1.03
2018-09-22T13:00:00.368Z,1.30
2018-09-22T13:02:30.133Z,1.00
2018-09-22T13:04:59.783Z,1.47
2018-09-22T13:07:29.561Z,1.47
2018-09-22T13:09:59.058Z,1.17
2018-09-22T13:12:28.805Z,1.50
2018-09-22T13:14:58.501Z,1.33
2018-09-22T13:17:28.230Z,1.30
2018-09-22T13:19:57.817Z,0.90
2018-09-22T13:22:27.708Z,1.30
2018-09-22T13:24:57.424Z,1.20
2018-09-22T13:27:27.227Z,1.13
2018-09-22T13:29:56.856Z,1.13
2018-09-22T13:32:26.648Z,1.07
2018-09-22T13:34:56.400Z,1.70
2018-09-22T13:37:26.253Z,1.57
2018-09-22T13:39:55.888Z,1.60
2018-09-22T13:42:25.523Z,1.20
2018-09-22T13:44:55.134Z,1.10
2018-09-22T13:47:24.832Z,1.30
2018-09-22T13:49:54.460Z,0.93
2018-09-22T13:52:24.148Z,2.13
2018-09-22T13:54:53.820Z,1.30
2018-09-22T13:57:23.476Z,1.57
2018-09-22T13:59:53.357Z,1.13
2018-09-22T14:02:23.213Z,1.13
2018-09-22T14:04:52.992Z,1.73
2018-09-22T14:07:22.571Z,1.40
2018-09-22T14:09:52.221Z,1.47
2018-09-22T14:12:21.920Z,1.50
2018-09-22T14:14:51.684Z,1.57
2018-09-22T14:17:21.260Z,1.77
2018-09-22T14:19:50.870Z,1.23
2018-09-22T14:22:20.835Z,1.57
2018-09-22T14:24:50.504Z,1.30
2018-09-22T14:27:20.273Z,1.20
2018-09-22T14:29:49.824Z,1.80
2018-09-22T14:32:19.602Z,1.40
2018-09-22T14:34:49.280Z,1.60
2018-09-22T14:37:19.012Z,1.60
2018-09-22T14:39:48.808Z,1.07
2018-09-22T14:42:18.452Z,1.40
2018-09-22T14:44:48.156Z,1.30
2018-09-22T14:47:17.738Z,1.20
2018-09-22T14:49:47.389Z,1.27
2018-09-22T14:52:17.328Z,1.40
2018-09-22T14:54:47.112Z,1.57
2018-09-22T14:57:16.804Z,1.37
2018-09-22T14:59:46.380Z,1.70
2018-09-22T15:02:16.147Z,1.60
2018-09-22T15:04:45.906Z,1.40
2018-09-22T15:07:15.588Z,1.87
2018-09-22T15:09:45.289Z,1.00
2018-09-22T15:12:15.139Z,1.70
2018-09-22T15:14:44.791Z,1.30
2018-09-22T15:17:14.512Z,1.50
2018-09-22T15:19:44.253Z,1.60
2018-09-22T15:22:14.037Z,1.60
2018-09-22T15:24:43.847Z,1.30
2018-09-22T15:27:13.572Z,1.33
2018-09-22T15:29:43.521Z,1.70
2018-09-22T15:32:13.236Z,1.60
2018-09-22T15:34:42.961Z,1.30
2018-09-22T15:37:12.608Z,1.30
2018-09-22T15:39:42.295Z,1.37
2018-09-22T15:42:12.063Z,1.53
2018-09-22T15:44:41.717Z,1.37
2018-09-22T15:47:11.204Z,1.60
2018-09-22T15:49:40.889Z,1.67
2018-09-22T15:52:10.607Z,1.13
2018-09-22T15:54:40.411Z,1.20
2018-09-22T15:57:10.032Z,1.20
2018-09-22T15:59:44.290Z,1.63
2018-09-22T16:02:14.099Z,1.87
2018-09-22T16:04:44.371Z,1.40
2018-09-22T16:07:15.542Z,1.00
2018-09-22T16:09:45.810Z,1.53
2018-09-22T16:12:17.571Z,1.40
2018-09-22T16:14:48.784Z,1.30
2018-09-22T16:17:19.027Z,1.67
2018-09-22T16:19:49.205Z,1.07
2018-09-22T16:22:18.965Z,1.57
2018-09-22T16:24:49.053Z,1.63
2018-09-22T16:27:20.646Z,1.77
2018-09-22T16:29:50.747Z,1.40
2018-09-22T16:32:20.461Z,1.87
2018-09-22T16:34:49.825Z,1.63
2018-09-22T16:37:19.185Z,1.60
2018-09-22T16:39:48.861Z,1.40
2018-09-22T16:42:18.224Z,1.40
2018-09-22T16:44:47.820Z,1.50
2018-09-22T16:47:17.586Z,1.40
2018-09-22T16:49:47.658Z,1.50
2018-09-22T16:52:17.341Z,1.10
2018-09-22T16:54:47.822Z,1.40
2018-09-22T16:57:18.334Z,1.30
2018-09-22T16:59:48.413Z,1.30
2018-09-22T17:02:18.081Z,1.40
2018-09-22T17:04:47.433Z,1.40
2018-09-22T17:07:16.789Z,2.07
2018-09-22T17:09:46.153Z,2.10
2018-09-22T17:12:15.513Z,1.90
2018-09-22T17:14:45.305Z,2.17
2018-09-22T17:17:14.664Z,2.57
2018-09-22T17:19:44.024Z,2.13
2018-09-22T17:22:13.410Z,3.00
2018-09-22T17:24:42.777Z,2.33
2018-09-22T17:27:12.142Z,2.07
2018-09-22T17:29:41.521Z,1.63
2018-09-22T17:32:10.882Z,1.67
2018-09-22T17:34:40.634Z,1.50
2018-09-22T17:37:09.988Z,1.63
2018-09-22T17:39:39.364Z,1.60
2018-09-22T17:42:09.150Z,1.43
2018-09-22T17:44:38.501Z,1.80
2018-09-22T17:47:07.943Z,1.50
2018-09-22T17:49:37.297Z,1.80
2018-09-22T17:52:07.074Z,1.33
2018-09-22T17:54:36.833Z,1.60
2018-09-22T17:57:06.408Z,1.40
2018-09-22T17:59:35.808Z,1.83
2018-09-22T18:02:05.180Z,1.90
2018-09-22T18:04:34.547Z,2.30
2018-09-22T18:07:03.921Z,5.00
2018-09-22T18:09:33.577Z,3.70
2018-09-22T18:12:02.944Z,3.47
2018-09-22T18:14:32.598Z,2.77
2018-09-22T18:17:01.966Z,2.40
2018-09-22T18:19:31.325Z,1.90
2018-09-22T18:22:00.681Z,2.20
2018-09-22T18:24:30.041Z,2.13
2018-09-22T18:26:59.404Z,2.60
2018-09-22T18:29:28.764Z,2.20
2018-09-22T18:31:58.125Z,2.00
2018-09-22T18:34:27.478Z,2.47
2018-09-22T18:36:56.855Z,2.60
2018-09-22T18:39:26.304Z,2.30
2018-09-22T18:41:55.957Z,2.00
2018-09-22T18:44:25.326Z,3.57
2018-09-22T18:46:55.005Z,3.00
2018-09-22T18:49:24.383Z,2.23
2018-09-22T18:51:53.757Z,2.17
2018-09-22T18:54:23.120Z,2.10
2018-09-22T18:56:52.516Z,2.00
2018-09-22T18:59:21.909Z,2.97
2018-09-22T19:01:51.276Z,3.00
2018-09-22T19:04:20.663Z,3.03
2018-09-22T19:06:50.057Z,3.30
2018-09-22T19:09:19.411Z,2.60
2018-09-22T19:11:48.777Z,2.70
2018-09-22T19:14:26.892Z,1.90
2018-09-22T19:17:02.961Z,2.50
2018-09-22T19:19:40.567Z,2.40
2018-09-22T19:22:13.128Z,2.50
2018-09-22T19:24:46.411Z,2.67
2018-09-22T19:28:23.409Z,3.40
2018-09-22T19:30:54.581Z,2.27
2018-09-22T19:33:29.133Z,2.50
2018-09-22T19:36:04.565Z,2.60
2018-09-22T19:38:40.444Z,2.33
2018-09-22T19:42:18.482Z,2.70
2018-09-22T19:45:06.755Z,2.30
2018-09-22T19:47:40.695Z,2.10
2018-09-22T19:50:12.811Z,2.40
2018-09-22T19:52:45.742Z,2.87
2018-09-22T19:55:15.378Z,2.50
2018-09-22T19:57:45.236Z,1.83
2018-09-22T20:00:14.633Z,1.50
2018-09-22T20:02:44.040Z,2.10
2018-09-22T20:05:13.415Z,1.90
2018-09-22T20:07:42.768Z,1.60
2018-09-22T20:10:12.127Z,1.80
2018-09-22T20:12:41.512Z,1.83
2018-09-22T20:15:10.884Z,2.10
2018-09-22T20:17:40.236Z,1.30
2018-09-22T20:20:09.639Z,1.80
2018-09-22T20:22:39.342Z,1.90
2018-09-22T20:25:08.985Z,2.37
2018-09-22T20:27:39.220Z,2.60
2018-09-22T20:30:08.982Z,3.50
2018-09-22T20:32:38.710Z,2.20
2018-09-22T20:35:08.674Z,2.57
2018-09-22T20:37:38.352Z,2.70
2018-09-22T20:40:08.392Z,2.40
2018-09-22T20:42:38.268Z,2.23
2018-09-22T20:45:08.362Z,2.03
2018-09-22T20:47:37.993Z,2.10
2018-09-22T20:50:07.485Z,2.07
2018-09-22T20:52:37.509Z,2.23
2018-09-22T20:55:07.201Z,2.30
2018-09-22T20:57:37.088Z,2.23
2018-09-22T21:00:08.189Z,2.20
2018-09-22T21:02:38.124Z,2.30
2018-09-22T21:05:07.501Z,2.40
2018-09-22T21:07:37.625Z,2.20
2018-09-22T21:10:07.429Z,2.30
2018-09-22T21:12:37.117Z,2.00
2018-09-22T21:15:06.884Z,1.83
2018-09-22T21:17:36.768Z,2.50
2018-09-22T21:20:06.432Z,1.90
2018-09-22T21:22:36.000Z,2.00
2018-09-22T21:25:05.799Z,1.90
2018-09-22T21:27:35.190Z,2.27
2018-09-22T21:30:04.724Z,2.20
2018-09-22T21:32:34.409Z,1.93
2018-09-22T21:35:04.012Z,1.73
2018-09-22T21:37:33.642Z,1.93
2018-09-22T21:40:03.397Z,2.27
2018-09-22T21:42:32.945Z,1.90
2018-09-22T21:45:02.581Z,2.00
2018-09-22T21:47:31.957Z,1.87
2018-09-22T21:50:02.027Z,1.90
2018-09-22T21:52:32.077Z,1.67
2018-09-22T21:55:01.621Z,1.80
2018-09-22T21:57:31.302Z,1.90
2018-09-22T22:00:00.674Z,1.97
2018-09-22T22:02:30.274Z,1.90
2018-09-22T22:04:59.789Z,1.80
2018-09-22T22:07:29.356Z,1.83
2018-09-22T22:09:59.348Z,2.17
2018-09-22T22:12:29.097Z,1.73
2018-09-22T22:14:58.679Z,1.60
2018-09-22T22:17:28.416Z,1.53
2018-09-22T22:19:58.192Z,1.90
2018-09-22T22:22:29.176Z,3.23
2018-09-22T22:24:59.240Z,1.57
2018-09-22T22:27:28.973Z,2.00
2018-09-22T22:29:58.591Z,2.00
2018-09-22T22:32:28.294Z,1.80
2018-09-22T22:34:58.032Z,1.73
2018-09-22T22:37:27.529Z,1.50
2018-09-22T22:39:57.313Z,2.10
2018-09-22T22:42:27.071Z,1.73
2018-09-22T22:44:56.732Z,2.20
2018-09-22T22:47:26.491Z,1.60
2018-09-22T22:49:56.572Z,1.50
2018-09-22T22:52:26.392Z,1.80
2018-09-22T22:54:56.019Z,1.87
2018-09-22T22:57:25.505Z,1.50
2018-09-22T22:59:55.240Z,1.90
2018-09-22T23:02:24.853Z,1.53
2018-09-22T23:04:55.042Z,1.87
2018-09-22T23:07:24.609Z,1.90
2018-09-22T23:09:54.446Z,1.70
2018-09-22T23:12:24.090Z,1.80
2018-09-22T23:14:53.800Z,1.67
2018-09-22T23:17:23.677Z,1.57
2018-09-22T23:19:53.255Z,1.80
2018-09-22T23:22:23.007Z,1.70
2018-09-22T23:24:52.776Z,1.50
2018-09-22T23:27:22.615Z,1.83
2018-09-22T23:29:52.279Z,1.67
2018-09-22T23:32:22.141Z,1.80
2018-09-22T23:34:51.688Z,1.60
2018-09-22T23:37:21.293Z,1.70
2018-09-22T23:39:50.909Z,1.73
2018-09-22T23:42:20.718Z,1.60
2018-09-22T23:44:50.505Z,1.70
2018-09-22T23:47:20.242Z,1.47
2018-09-22T23:49:50.193Z,1.63
2018-09-22T23:52:20.020Z,1.60
2018-09-22T23:54:49.693Z,1.17
2018-09-22T23:57:19.528Z,2.13
2018-09-22T23:59:49.296Z,1.57
